sensor_id;sensor_type;location;lat;lon;timestamp;temperature;humidity
20858;DHT22;10589;53.636;10.012;2023-05-29T03:47:34;8.10;99.90
20858;DHT22;10589;53.636;10.012;2023-05-29T03:49:59;8.10;99.90
20858;DHT22;10589;53.636;10.012;2023-05-29T03:52:25;8.10;99.90
20858;DHT22;10589;53.636;10.012;2023-05-29T03:54:51;8.10;99.90
20858;DHT22;10589;53.636;10.012;2023-05-29T03:57:16;8.20;99.90
20858;DHT22;10589;53.636;10.012;2023-05-29T03:59:42;8.20;99.90
20858;DHT22;10589;53.636;10.012;2023-05-29T04:02:07;8.30;99.90
20858;DHT22;10589;53.636;10.012;2023-05-29T04:04:33;8.30;99.90
20858;DHT22;10589;53.636;10.012;2023-05-29T04:06:59;8.30;99.90
20858;DHT22;10589;53.636;10.012;2023-05-29T04:09:24;8.40;99.90
20858;DHT22;10589;53.636;10.012;2023-05-29T04:11:50;8.40;99.90
20858;DHT22;10589;53.636;10.012;2023-05-29T04:14:17;8.50;99.90
20858;DHT22;10589;53.636;10.012;2023-05-29T04:16:43;8.50;99.90
20858;DHT22;10589;53.636;10.012;2023-05-29T04:19:08;8.50;99.90
20858;DHT22;10589;53.636;10.012;2023-05-29T04:21:34;8.60;99.90
20858;DHT22;10589;53.636;10.012;2023-05-29T04:24:00;8.70;99.90
20858;DHT22;10589;53.636;10.012;2023-05-29T04:26:26;8.70;99.90
20858;DHT22;10589;53.636;10.012;2023-05-29T04:28:55;8.70;99.90
20858;DHT22;10589;53.636;10.012;2023-05-29T04:31:26;8.70;99.90
20858;DHT22;10589;53.636;10.012;2023-05-29T04:33:53;8.80;99.90
20858;DHT22;10589;53.636;10.012;2023-05-29T04:36:25;8.80;99.90
20858;DHT22;10589;53.636;10.012;2023-05-29T04:38:52;8.90;99.90
20858;DHT22;10589;53.636;10.012;2023-05-29T04:41:18;8.90;99.90
20858;DHT22;10589;53.636;10.012;2023-05-29T04:43:44;9.00;99.90
20858;DHT22;10589;53.636;10.012;2023-05-29T04:46:11;9.10;99.90
20858;DHT22;10589;53.636;10.012;2023-05-29T04:48:40;9.10;99.90
20858;DHT22;10589;53.636;10.012;2023-05-29T04:51:06;9.30;99.90
20858;DHT22;10589;53.636;10.012;2023-05-29T04:53:33;9.30;99.90
20858;DHT22;10589;53.636;10.012;2023-05-29T04:55:59;9.30;99.90
20858;DHT22;10589;53.636;10.012;2023-05-29T04:58:26;9.40;99.90
20858;DHT22;10589;53.636;10.012;2023-05-29T05:00:51;9.30;99.90
20858;DHT22;10589;53.636;10.012;2023-05-29T05:03:17;9.50;99.90
20858;DHT22;10589;53.636;10.012;2023-05-29T05:05:42;9.60;99.90
20858;DHT22;10589;53.636;10.012;2023-05-29T05:08:09;9.70;99.90
20858;DHT22;10589;53.636;10.012;2023-05-29T05:10:37;9.70;99.90
20858;DHT22;10589;53.636;10.012;2023-05-29T05:13:03;9.70;99.90
20858;DHT22;10589;53.636;10.012;2023-05-29T05:15:28;9.80;99.90
20858;DHT22;10589;53.636;10.012;2023-05-29T05:17:54;9.80;99.90
20858;DHT22;10589;53.636;10.012;2023-05-29T05:20:20;9.90;99.90
20858;DHT22;10589;53.636;10.012;2023-05-29T05:22:46;9.90;99.90
20858;DHT22;10589;53.636;10.012;2023-05-29T05:25:11;9.80;99.90
20858;DHT22;10589;53.636;10.012;2023-05-29T05:27:37;9.80;99.90
20858;DHT22;10589;53.636;10.012;2023-05-29T05:30:03;9.80;99.90
20858;DHT22;10589;53.636;10.012;2023-05-29T05:32:29;9.90;99.90
20858;DHT22;10589;53.636;10.012;2023-05-29T05:34:55;9.90;99.90
20858;DHT22;10589;53.636;10.012;2023-05-29T05:37:21;9.90;99.90
20858;DHT22;10589;53.636;10.012;2023-05-29T05:39:49;10.10;99.90
20858;DHT22;10589;53.636;10.012;2023-05-29T05:42:16;10.20;99.90
20858;DHT22;10589;53.636;10.012;2023-05-29T05:44:41;10.20;99.90
20858;DHT22;10589;53.636;10.012;2023-05-29T05:47:07;10.30;99.90
20858;DHT22;10589;53.636;10.012;2023-05-29T05:49:33;10.30;99.90
20858;DHT22;10589;53.636;10.012;2023-05-29T05:51:58;10.20;99.90
20858;DHT22;10589;53.636;10.012;2023-05-29T05:54:24;10.20;99.90
20858;DHT22;10589;53.636;10.012;2023-05-29T05:56:50;10.20;99.90
20858;DHT22;10589;53.636;10.012;2023-05-29T05:59:15;10.40;99.90
20858;DHT22;10589;53.636;10.012;2023-05-29T06:01:41;10.40;99.90
20858;DHT22;10589;53.636;10.012;2023-05-29T06:04:07;10.40;99.90
20858;DHT22;10589;53.636;10.012;2023-05-29T06:06:32;10.60;99.90
20858;DHT22;10589;53.636;10.012;2023-05-29T06:08:58;10.60;99.90
20858;DHT22;10589;53.636;10.012;2023-05-29T06:11:24;10.70;99.90
20858;DHT22;10589;53.636;10.012;2023-05-29T06:13:51;10.80;99.90
20858;DHT22;10589;53.636;10.012;2023-05-29T06:16:17;10.70;99.90
20858;DHT22;10589;53.636;10.012;2023-05-29T06:18:43;10.70;99.90
20858;DHT22;10589;53.636;10.012;2023-05-29T06:21:11;10.80;99.90
20858;DHT22;10589;53.636;10.012;2023-05-29T06:23:37;11.10;99.90
20858;DHT22;10589;53.636;10.012;2023-05-29T06:26:03;11.10;99.90
20858;DHT22;10589;53.636;10.012;2023-05-29T06:28:31;11.20;99.90
20858;DHT22;10589;53.636;10.012;2023-05-29T06:30:57;11.20;99.90
20858;DHT22;10589;53.636;10.012;2023-05-29T06:33:22;11.30;99.90
20858;DHT22;10589;53.636;10.012;2023-05-29T06:35:49;11.40;99.90
20858;DHT22;10589;53.636;10.012;2023-05-29T06:38:15;11.50;99.90
20858;DHT22;10589;53.636;10.012;2023-05-29T06:40:40;11.60;99.90
20858;DHT22;10589;53.636;10.012;2023-05-29T06:43:06;11.70;99.90
20858;DHT22;10589;53.636;10.012;2023-05-29T06:45:32;11.60;99.90
20858;DHT22;10589;53.636;10.012;2023-05-29T06:47:57;11.60;99.90
20858;DHT22;10589;53.636;10.012;2023-05-29T06:50:23;11.70;99.90
20858;DHT22;10589;53.636;10.012;2023-05-29T06:52:48;11.80;99.90
20858;DHT22;10589;53.636;10.012;2023-05-29T06:55:14;11.80;99.90
20858;DHT22;10589;53.636;10.012;2023-05-29T06:57:40;11.80;99.90
20858;DHT22;10589;53.636;10.012;2023-05-29T07:00:06;11.80;99.90
20858;DHT22;10589;53.636;10.012;2023-05-29T07:02:33;11.80;99.90
20858;DHT22;10589;53.636;10.012;2023-05-29T07:04:58;11.90;99.90
20858;DHT22;10589;53.636;10.012;2023-05-29T07:07:24;11.90;99.90
20858;DHT22;10589;53.636;10.012;2023-05-29T07:09:49;12.20;99.90
20858;DHT22;10589;53.636;10.012;2023-05-29T07:12:15;12.40;99.90
20858;DHT22;10589;53.636;10.012;2023-05-29T07:14:41;12.50;99.90
20858;DHT22;10589;53.636;10.012;2023-05-29T07:17:06;12.40;99.90
20858;DHT22;10589;53.636;10.012;2023-05-29T07:19:32;12.40;99.90
20858;DHT22;10589;53.636;10.012;2023-05-29T07:22:00;12.50;99.90
20858;DHT22;10589;53.636;10.012;2023-05-29T07:24:26;12.50;99.90
20858;DHT22;10589;53.636;10.012;2023-05-29T07:26:52;12.70;99.90
20858;DHT22;10589;53.636;10.012;2023-05-29T07:29:18;12.80;99.90
20858;DHT22;10589;53.636;10.012;2023-05-29T07:31:46;12.60;99.90
20858;DHT22;10589;53.636;10.012;2023-05-29T07:34:12;12.50;99.90
20858;DHT22;10589;53.636;10.012;2023-05-29T07:36:56;12.70;99.90
20858;DHT22;10589;53.636;10.012;2023-05-29T07:39:22;12.80;99.90
20858;DHT22;10589;53.636;10.012;2023-05-29T07:41:48;13.00;99.90
20858;DHT22;10589;53.636;10.012;2023-05-29T07:44:14;13.40;99.90
20858;DHT22;10589;53.636;10.012;2023-05-29T07:46:39;13.60;99.90
20858;DHT22;10589;53.636;10.012;2023-05-29T07:49:06;13.80;99.90
20858;DHT22;10589;53.636;10.012;2023-05-29T07:51:32;13.90;99.90
20858;DHT22;10589;53.636;10.012;2023-05-29T07:53:57;14.00;99.90
20858;DHT22;10589;53.636;10.012;2023-05-29T07:56:23;14.30;99.90
20858;DHT22;10589;53.636;10.012;2023-05-29T07:58:48;14.50;99.90
20858;DHT22;10589;53.636;10.012;2023-05-29T08:01:14;14.60;99.90
20858;DHT22;10589;53.636;10.012;2023-05-29T08:03:41;14.60;99.90
20858;DHT22;10589;53.636;10.012;2023-05-29T08:06:07;14.70;99.90
20858;DHT22;10589;53.636;10.012;2023-05-29T08:08:33;14.70;99.90
20858;DHT22;10589;53.636;10.012;2023-05-29T08:10:58;14.50;99.90
20858;DHT22;10589;53.636;10.012;2023-05-29T08:13:24;14.50;99.90
20858;DHT22;10589;53.636;10.012;2023-05-29T08:15:49;14.50;99.90
20858;DHT22;10589;53.636;10.012;2023-05-29T08:18:15;14.50;99.90
20858;DHT22;10589;53.636;10.012;2023-05-29T08:20:41;14.30;99.90
20858;DHT22;10589;53.636;10.012;2023-05-29T08:23:08;14.40;99.90
20858;DHT22;10589;53.636;10.012;2023-05-29T08:25:33;14.60;99.90
20858;DHT22;10589;53.636;10.012;2023-05-29T08:27:59;14.60;99.90
20858;DHT22;10589;53.636;10.012;2023-05-29T08:30:25;14.90;99.90
20858;DHT22;10589;53.636;10.012;2023-05-29T08:32:51;14.90;99.90
20858;DHT22;10589;53.636;10.012;2023-05-29T08:35:16;15.00;99.90
20858;DHT22;10589;53.636;10.012;2023-05-29T08:37:42;15.20;99.90
20858;DHT22;10589;53.636;10.012;2023-05-29T08:40:08;15.20;99.90
20858;DHT22;10589;53.636;10.012;2023-05-29T08:42:39;15.40;99.90
20858;DHT22;10589;53.636;10.012;2023-05-29T08:45:07;15.50;99.90
20858;DHT22;10589;53.636;10.012;2023-05-29T08:47:36;15.40;99.90
20858;DHT22;10589;53.636;10.012;2023-05-29T08:50:02;15.60;99.90
20858;DHT22;10589;53.636;10.012;2023-05-29T08:52:30;15.60;99.90
20858;DHT22;10589;53.636;10.012;2023-05-29T08:54:58;15.80;99.90
20858;DHT22;10589;53.636;10.012;2023-05-29T08:57:28;16.00;99.90
20858;DHT22;10589;53.636;10.012;2023-05-29T08:59:54;16.00;99.90
20858;DHT22;10589;53.636;10.012;2023-05-29T09:02:22;16.10;99.90
20858;DHT22;10589;53.636;10.012;2023-05-29T09:04:48;16.20;99.90
20858;DHT22;10589;53.636;10.012;2023-05-29T09:07:19;16.40;99.90
20858;DHT22;10589;53.636;10.012;2023-05-29T09:09:46;16.20;99.90
20858;DHT22;10589;53.636;10.012;2023-05-29T09:12:12;16.40;99.90
20858;DHT22;10589;53.636;10.012;2023-05-29T09:14:38;16.50;99.90
20858;DHT22;10589;53.636;10.012;2023-05-29T09:17:06;16.80;99.90
20858;DHT22;10589;53.636;10.012;2023-05-29T09:19:34;17.00;99.90
20858;DHT22;10589;53.636;10.012;2023-05-29T09:22:10;17.10;99.90
20858;DHT22;10589;53.636;10.012;2023-05-29T09:24:37;17.10;99.90
20858;DHT22;10589;53.636;10.012;2023-05-29T09:27:06;17.10;99.90
20858;DHT22;10589;53.636;10.012;2023-05-29T09:29:40;17.10;99.90
20858;DHT22;10589;53.636;10.012;2023-05-29T09:32:08;17.10;99.90
20858;DHT22;10589;53.636;10.012;2023-05-29T09:34:34;17.20;99.90
20858;DHT22;10589;53.636;10.012;2023-05-29T09:37:03;17.20;99.90
20858;DHT22;10589;53.636;10.012;2023-05-29T09:42:05;17.30;99.90
20858;DHT22;10589;53.636;10.012;2023-05-29T09:44:31;17.10;99.90
20858;DHT22;10589;53.636;10.012;2023-05-29T09:46:58;17.20;99.90
20858;DHT22;10589;53.636;10.012;2023-05-29T09:49:25;17.30;99.90
20858;DHT22;10589;53.636;10.012;2023-05-29T09:51:54;17.70;99.90
20858;DHT22;10589;53.636;10.012;2023-05-29T09:54:21;17.80;99.90
20858;DHT22;10589;53.636;10.012;2023-05-29T09:56:47;17.90;99.90
20858;DHT22;10589;53.636;10.012;2023-05-29T09:59:14;18.10;99.90
20858;DHT22;10589;53.636;10.012;2023-05-29T10:01:42;17.80;99.90
20858;DHT22;10589;53.636;10.012;2023-05-29T10:04:08;18.00;99.90
20858;DHT22;10589;53.636;10.012;2023-05-29T10:06:38;18.10;99.90
20858;DHT22;10589;53.636;10.012;2023-05-29T10:09:09;18.20;99.90
20858;DHT22;10589;53.636;10.012;2023-05-29T10:11:44;18.50;99.90
20858;DHT22;10589;53.636;10.012;2023-05-29T10:14:18;18.60;99.90
20858;DHT22;10589;53.636;10.012;2023-05-29T10:16:46;18.60;99.90
20858;DHT22;10589;53.636;10.012;2023-05-29T10:19:14;18.50;99.90
20858;DHT22;10589;53.636;10.012;2023-05-29T10:21:41;18.50;99.90
20858;DHT22;10589;53.636;10.012;2023-05-29T10:24:11;18.00;99.90
20858;DHT22;10589;53.636;10.012;2023-05-29T10:26:39;18.20;99.90
20858;DHT22;10589;53.636;10.012;2023-05-29T10:34:52;18.90;99.90
20858;DHT22;10589;53.636;10.012;2023-05-29T10:39:50;18.60;99.90
20858;DHT22;10589;53.636;10.012;2023-05-29T10:42:41;18.50;99.90
20858;DHT22;10589;53.636;10.012;2023-05-29T10:45:13;18.70;99.90
20858;DHT22;10589;53.636;10.012;2023-05-29T10:50:43;19.10;99.90
20858;DHT22;10589;53.636;10.012;2023-05-29T10:53:14;19.10;99.90
20858;DHT22;10589;53.636;10.012;2023-05-29T10:55:41;19.30;99.90
20858;DHT22;10589;53.636;10.012;2023-05-29T10:58:07;19.50;99.90
20858;DHT22;10589;53.636;10.012;2023-05-29T11:00:33;19.30;99.90
20858;DHT22;10589;53.636;10.012;2023-05-29T11:03:07;19.00;99.90
20858;DHT22;10589;53.636;10.012;2023-05-29T11:05:32;18.90;99.90
20858;DHT22;10589;53.636;10.012;2023-05-29T11:08:00;18.90;99.90
20858;DHT22;10589;53.636;10.012;2023-05-29T11:13:35;19.50;99.90
20858;DHT22;10589;53.636;10.012;2023-05-29T11:18:54;19.60;99.90
20858;DHT22;10589;53.636;10.012;2023-05-29T11:23:51;20.10;99.90
20858;DHT22;10589;53.636;10.012;2023-05-29T11:26:19;20.30;99.90
20858;DHT22;10589;53.636;10.012;2023-05-29T11:28:45;20.20;99.90
20858;DHT22;10589;53.636;10.012;2023-05-29T11:31:12;20.60;99.90
20858;DHT22;10589;53.636;10.012;2023-05-29T11:33:47;20.70;99.90
20858;DHT22;10589;53.636;10.012;2023-05-29T11:36:14;20.70;99.90
20858;DHT22;10589;53.636;10.012;2023-05-29T11:38:40;20.80;99.90
20858;DHT22;10589;53.636;10.012;2023-05-29T11:41:05;20.90;99.90
20858;DHT22;10589;53.636;10.012;2023-05-29T11:43:31;20.70;99.90
20858;DHT22;10589;53.636;10.012;2023-05-29T11:45:58;20.90;99.90
20858;DHT22;10589;53.636;10.012;2023-05-29T11:48:24;21.00;99.90
20858;DHT22;10589;53.636;10.012;2023-05-29T11:50:49;21.20;99.90
20858;DHT22;10589;53.636;10.012;2023-05-29T11:53:15;21.10;99.90
20858;DHT22;10589;53.636;10.012;2023-05-29T11:55:41;21.50;99.90
20858;DHT22;10589;53.636;10.012;2023-05-29T11:58:07;21.30;99.90
20858;DHT22;10589;53.636;10.012;2023-05-29T12:00:37;21.60;99.90
20858;DHT22;10589;53.636;10.012;2023-05-29T12:03:06;21.90;99.90
20858;DHT22;10589;53.636;10.012;2023-05-29T12:05:43;22.10;99.90
20858;DHT22;10589;53.636;10.012;2023-05-29T12:08:09;22.20;99.90
20858;DHT22;10589;53.636;10.012;2023-05-29T12:10:35;22.40;99.90
20858;DHT22;10589;53.636;10.012;2023-05-29T12:13:01;22.60;99.90
20858;DHT22;10589;53.636;10.012;2023-05-29T12:15:27;22.90;99.90
20858;DHT22;10589;53.636;10.012;2023-05-29T12:17:53;22.90;99.90
20858;DHT22;10589;53.636;10.012;2023-05-29T12:20:22;22.80;99.90
20858;DHT22;10589;53.636;10.012;2023-05-29T12:22:49;22.90;99.90
20858;DHT22;10589;53.636;10.012;2023-05-29T12:25:16;22.80;99.90
20858;DHT22;10589;53.636;10.012;2023-05-29T12:27:44;23.10;99.90
20858;DHT22;10589;53.636;10.012;2023-05-29T12:30:20;23.40;99.90
20858;DHT22;10589;53.636;10.012;2023-05-29T12:32:48;23.10;99.90
20858;DHT22;10589;53.636;10.012;2023-05-29T12:35:19;22.50;99.90
20858;DHT22;10589;53.636;10.012;2023-05-29T12:40:24;24.80;99.90
20858;DHT22;10589;53.636;10.012;2023-05-29T12:43:01;26.10;99.90
20858;DHT22;10589;53.636;10.012;2023-05-29T12:45:29;26.70;99.90
20858;DHT22;10589;53.636;10.012;2023-05-29T12:48:03;27.70;99.90
20858;DHT22;10589;53.636;10.012;2023-05-29T12:50:34;28.70;99.90
20858;DHT22;10589;53.636;10.012;2023-05-29T12:55:38;31.60;96.30
20858;DHT22;10589;53.636;10.012;2023-05-29T12:58:05;32.10;95.80
20858;DHT22;10589;53.636;10.012;2023-05-29T13:00:33;32.60;92.80
20858;DHT22;10589;53.636;10.012;2023-05-29T13:02:59;33.10;88.30
20858;DHT22;10589;53.636;10.012;2023-05-29T13:05:24;33.90;86.20
20858;DHT22;10589;53.636;10.012;2023-05-29T13:07:51;33.40;80.90
20858;DHT22;10589;53.636;10.012;2023-05-29T13:10:17;34.40;78.70
20858;DHT22;10589;53.636;10.012;2023-05-29T13:12:43;34.20;79.70
20858;DHT22;10589;53.636;10.012;2023-05-29T13:15:10;34.30;77.40
20858;DHT22;10589;53.636;10.012;2023-05-29T13:17:36;35.00;73.90
20858;DHT22;10589;53.636;10.012;2023-05-29T13:20:02;35.40;71.60
20858;DHT22;10589;53.636;10.012;2023-05-29T13:22:32;35.60;70.80
20858;DHT22;10589;53.636;10.012;2023-05-29T13:24:58;35.40;74.50
20858;DHT22;10589;53.636;10.012;2023-05-29T13:27:27;36.10;69.60
20858;DHT22;10589;53.636;10.012;2023-05-29T13:29:53;36.20;67.20
20858;DHT22;10589;53.636;10.012;2023-05-29T13:32:19;36.10;70.60
20858;DHT22;10589;53.636;10.012;2023-05-29T13:34:45;35.70;68.20
20858;DHT22;10589;53.636;10.012;2023-05-29T13:37:11;36.10;70.70
20858;DHT22;10589;53.636;10.012;2023-05-29T13:39:36;36.50;69.00
20858;DHT22;10589;53.636;10.012;2023-05-29T13:42:02;36.90;67.60
20858;DHT22;10589;53.636;10.012;2023-05-29T13:44:28;36.80;65.80
20858;DHT22;10589;53.636;10.012;2023-05-29T13:46:53;37.40;63.60
20858;DHT22;10589;53.636;10.012;2023-05-29T13:49:19;36.50;65.10
20858;DHT22;10589;53.636;10.012;2023-05-29T13:51:45;37.00;65.30
20858;DHT22;10589;53.636;10.012;2023-05-29T13:54:12;36.90;67.20
20858;DHT22;10589;53.636;10.012;2023-05-29T13:56:38;36.70;63.50
20858;DHT22;10589;53.636;10.012;2023-05-29T13:59:03;36.70;64.60
20858;DHT22;10589;53.636;10.012;2023-05-29T14:01:34;37.10;62.20
20858;DHT22;10589;53.636;10.012;2023-05-29T14:04:00;37.10;61.20
20858;DHT22;10589;53.636;10.012;2023-05-29T14:06:26;34.90;61.40
20858;DHT22;10589;53.636;10.012;2023-05-29T14:08:52;35.40;64.10
20858;DHT22;10589;53.636;10.012;2023-05-29T14:11:18;35.80;66.90
20858;DHT22;10589;53.636;10.012;2023-05-29T14:13:43;36.70;61.40
20858;DHT22;10589;53.636;10.012;2023-05-29T14:16:09;37.00;60.20
20858;DHT22;10589;53.636;10.012;2023-05-29T14:18:35;36.10;63.00
20858;DHT22;10589;53.636;10.012;2023-05-29T14:21:00;36.60;61.70
20858;DHT22;10589;53.636;10.012;2023-05-29T14:23:26;36.70;63.00
20858;DHT22;10589;53.636;10.012;2023-05-29T14:25:51;35.00;59.50
20858;DHT22;10589;53.636;10.012;2023-05-29T14:28:17;35.80;60.10
20858;DHT22;10589;53.636;10.012;2023-05-29T14:30:43;36.40;59.00
20858;DHT22;10589;53.636;10.012;2023-05-29T14:33:09;36.20;65.30
20858;DHT22;10589;53.636;10.012;2023-05-29T14:35:35;37.20;60.40
20858;DHT22;10589;53.636;10.012;2023-05-29T14:38:01;35.90;62.80
20858;DHT22;10589;53.636;10.012;2023-05-29T14:40:27;36.50;59.80
20858;DHT22;10589;53.636;10.012;2023-05-29T14:42:53;37.20;60.50
20858;DHT22;10589;53.636;10.012;2023-05-29T14:45:18;37.80;59.20
20858;DHT22;10589;53.636;10.012;2023-05-29T14:47:45;35.90;63.20
20858;DHT22;10589;53.636;10.012;2023-05-29T14:50:11;36.10;63.10
20858;DHT22;10589;53.636;10.012;2023-05-29T14:52:37;34.20;58.60
20858;DHT22;10589;53.636;10.012;2023-05-29T14:55:04;34.20;61.70
20858;DHT22;10589;53.636;10.012;2023-05-29T14:57:30;34.80;60.10
20858;DHT22;10589;53.636;10.012;2023-05-29T15:00:00;35.70;59.00
20858;DHT22;10589;53.636;10.012;2023-05-29T15:02:26;35.00;61.10
20858;DHT22;10589;53.636;10.012;2023-05-29T15:04:52;35.50;59.60
20858;DHT22;10589;53.636;10.012;2023-05-29T15:07:17;36.10;59.40
20858;DHT22;10589;53.636;10.012;2023-05-29T15:09:43;35.80;59.10
20858;DHT22;10589;53.636;10.012;2023-05-29T15:12:09;35.90;59.00
20858;DHT22;10589;53.636;10.012;2023-05-29T15:14:35;35.70;59.00
20858;DHT22;10589;53.636;10.012;2023-05-29T15:17:02;35.50;59.90
20858;DHT22;10589;53.636;10.012;2023-05-29T15:19:28;35.20;60.00
20858;DHT22;10589;53.636;10.012;2023-05-29T15:21:54;35.60;60.60
20858;DHT22;10589;53.636;10.012;2023-05-29T15:24:20;34.90;62.50
20858;DHT22;10589;53.636;10.012;2023-05-29T15:26:45;35.10;64.50
20858;DHT22;10589;53.636;10.012;2023-05-29T15:29:11;35.30;62.70
20858;DHT22;10589;53.636;10.012;2023-05-29T15:31:36;34.80;64.30
20858;DHT22;10589;53.636;10.012;2023-05-29T15:34:02;34.50;63.10
20858;DHT22;10589;53.636;10.012;2023-05-29T15:36:28;34.90;62.50
20858;DHT22;10589;53.636;10.012;2023-05-29T15:38:54;33.60;64.80
20858;DHT22;10589;53.636;10.012;2023-05-29T15:41:20;33.10;64.80
20858;DHT22;10589;53.636;10.012;2023-05-29T15:43:46;33.10;65.40
20858;DHT22;10589;53.636;10.012;2023-05-29T15:46:11;33.50;65.30
20858;DHT22;10589;53.636;10.012;2023-05-29T15:48:37;32.80;66.00
20858;DHT22;10589;53.636;10.012;2023-05-29T15:51:04;33.50;63.50
20858;DHT22;10589;53.636;10.012;2023-05-29T15:53:29;34.40;65.50
20858;DHT22;10589;53.636;10.012;2023-05-29T15:55:55;35.20;66.10
20858;DHT22;10589;53.636;10.012;2023-05-29T15:58:20;35.80;61.80
20858;DHT22;10589;53.636;10.012;2023-05-29T16:00:47;36.10;61.00
20858;DHT22;10589;53.636;10.012;2023-05-29T16:03:13;35.60;62.20
20858;DHT22;10589;53.636;10.012;2023-05-29T16:05:38;35.30;63.30
20858;DHT22;10589;53.636;10.012;2023-05-29T16:08:05;35.00;64.80
20858;DHT22;10589;53.636;10.012;2023-05-29T16:10:30;35.10;62.50
20858;DHT22;10589;53.636;10.012;2023-05-29T16:12:56;34.90;62.90
20858;DHT22;10589;53.636;10.012;2023-05-29T16:15:22;34.80;61.60
20858;DHT22;10589;53.636;10.012;2023-05-29T16:17:48;34.30;64.10
20858;DHT22;10589;53.636;10.012;2023-05-29T16:20:13;33.80;64.40
20858;DHT22;10589;53.636;10.012;2023-05-29T16:22:39;34.70;60.80
20858;DHT22;10589;53.636;10.012;2023-05-29T16:25:05;35.00;60.70
20858;DHT22;10589;53.636;10.012;2023-05-29T16:27:32;35.30;63.60
20858;DHT22;10589;53.636;10.012;2023-05-29T16:29:58;35.90;63.00
20858;DHT22;10589;53.636;10.012;2023-05-29T16:32:24;36.30;58.90
20858;DHT22;10589;53.636;10.012;2023-05-29T16:34:50;36.00;62.00
20858;DHT22;10589;53.636;10.012;2023-05-29T16:37:20;35.80;60.70
20858;DHT22;10589;53.636;10.012;2023-05-29T16:39:47;35.80;60.90
20858;DHT22;10589;53.636;10.012;2023-05-29T16:42:12;35.10;61.40
20858;DHT22;10589;53.636;10.012;2023-05-29T16:44:38;34.30;63.10
20858;DHT22;10589;53.636;10.012;2023-05-29T16:47:04;34.00;65.80
20858;DHT22;10589;53.636;10.012;2023-05-29T16:49:30;33.60;63.80
20858;DHT22;10589;53.636;10.012;2023-05-29T16:51:56;32.90;66.30
20858;DHT22;10589;53.636;10.012;2023-05-29T16:54:21;33.00;65.80
20858;DHT22;10589;53.636;10.012;2023-05-29T16:56:47;33.30;66.20
20858;DHT22;10589;53.636;10.012;2023-05-29T16:59:12;33.40;66.90
20858;DHT22;10589;53.636;10.012;2023-05-29T17:01:38;33.50;65.30
20858;DHT22;10589;53.636;10.012;2023-05-29T17:04:04;33.30;67.00
20858;DHT22;10589;53.636;10.012;2023-05-29T17:06:32;32.50;66.70
20858;DHT22;10589;53.636;10.012;2023-05-29T17:08:58;31.70;66.80
20858;DHT22;10589;53.636;10.012;2023-05-29T17:11:23;30.30;68.00
20858;DHT22;10589;53.636;10.012;2023-05-29T17:13:49;28.90;70.60
20858;DHT22;10589;53.636;10.012;2023-05-29T17:16:15;27.50;72.50
20858;DHT22;10589;53.636;10.012;2023-05-29T17:18:40;26.50;73.50
20858;DHT22;10589;53.636;10.012;2023-05-29T17:21:06;25.50;76.20
20858;DHT22;10589;53.636;10.012;2023-05-29T17:23:31;24.80;77.30
20858;DHT22;10589;53.636;10.012;2023-05-29T17:25:57;24.20;78.90
20858;DHT22;10589;53.636;10.012;2023-05-29T17:28:23;23.60;79.40
20858;DHT22;10589;53.636;10.012;2023-05-29T17:30:49;23.20;80.50
20858;DHT22;10589;53.636;10.012;2023-05-29T17:33:14;22.80;81.60
20858;DHT22;10589;53.636;10.012;2023-05-29T17:35:44;22.50;82.20
20858;DHT22;10589;53.636;10.012;2023-05-29T17:38:10;22.10;83.30
20858;DHT22;10589;53.636;10.012;2023-05-29T17:40:36;21.80;83.00
20858;DHT22;10589;53.636;10.012;2023-05-29T17:43:02;21.60;84.00
20858;DHT22;10589;53.636;10.012;2023-05-29T17:45:29;21.20;85.50
20858;DHT22;10589;53.636;10.012;2023-05-29T17:47:54;20.90;85.50
20858;DHT22;10589;53.636;10.012;2023-05-29T17:50:20;20.80;86.20
20858;DHT22;10589;53.636;10.012;2023-05-29T17:52:46;20.60;87.30
20858;DHT22;10589;53.636;10.012;2023-05-29T17:55:12;20.40;88.60
20858;DHT22;10589;53.636;10.012;2023-05-29T17:57:37;20.30;89.50
20858;DHT22;10589;53.636;10.012;2023-05-29T18:00:05;20.30;89.10
20858;DHT22;10589;53.636;10.012;2023-05-29T18:02:31;20.30;88.40
20858;DHT22;10589;53.636;10.012;2023-05-29T18:04:56;20.20;88.40
20858;DHT22;10589;53.636;10.012;2023-05-29T18:07:22;20.00;88.80
20858;DHT22;10589;53.636;10.012;2023-05-29T18:09:48;19.80;88.20
20858;DHT22;10589;53.636;10.012;2023-05-29T18:12:13;19.60;89.80
20858;DHT22;10589;53.636;10.012;2023-05-29T18:14:39;19.40;89.80
20858;DHT22;10589;53.636;10.012;2023-05-29T18:17:06;19.20;89.80
20858;DHT22;10589;53.636;10.012;2023-05-29T18:19:32;19.00;90.90
20858;DHT22;10589;53.636;10.012;2023-05-29T18:21:58;18.90;90.90
20858;DHT22;10589;53.636;10.012;2023-05-29T18:24:23;18.80;90.90
20858;DHT22;10589;53.636;10.012;2023-05-29T18:26:49;18.60;91.40
20858;DHT22;10589;53.636;10.012;2023-05-29T18:29:14;18.50;91.00
20858;DHT22;10589;53.636;10.012;2023-05-29T18:31:40;18.40;90.90
20858;DHT22;10589;53.636;10.012;2023-05-29T18:34:06;18.20;91.40
20858;DHT22;10589;53.636;10.012;2023-05-29T18:36:31;18.00;91.70
20858;DHT22;10589;53.636;10.012;2023-05-29T18:38:57;18.00;91.60
20858;DHT22;10589;53.636;10.012;2023-05-29T18:41:23;17.90;91.40
20858;DHT22;10589;53.636;10.012;2023-05-29T18:43:49;17.80;92.00
20858;DHT22;10589;53.636;10.012;2023-05-29T18:46:17;17.60;91.50
20858;DHT22;10589;53.636;10.012;2023-05-29T18:48:43;17.40;92.10
20858;DHT22;10589;53.636;10.012;2023-05-29T18:51:09;17.20;92.50
20858;DHT22;10589;53.636;10.012;2023-05-29T18:53:36;17.10;92.30
20858;DHT22;10589;53.636;10.012;2023-05-29T18:56:06;17.00;92.70
20858;DHT22;10589;53.636;10.012;2023-05-29T18:58:32;16.80;93.00
20858;DHT22;10589;53.636;10.012;2023-05-29T19:00:57;16.80;93.40
20858;DHT22;10589;53.636;10.012;2023-05-29T19:03:25;16.60;93.60
20858;DHT22;10589;53.636;10.012;2023-05-29T19:05:51;16.50;93.80
20858;DHT22;10589;53.636;10.012;2023-05-29T19:08:16;16.30;94.50
20858;DHT22;10589;53.636;10.012;2023-05-29T19:10:43;16.20;94.80
20858;DHT22;10589;53.636;10.012;2023-05-29T19:13:09;16.10;95.00
20858;DHT22;10589;53.636;10.012;2023-05-29T19:15:35;16.00;95.20
20858;DHT22;10589;53.636;10.012;2023-05-29T19:18:01;15.90;95.60
20858;DHT22;10589;53.636;10.012;2023-05-29T19:20:29;15.90;96.10
20858;DHT22;10589;53.636;10.012;2023-05-29T19:22:56;15.80;96.80
20858;DHT22;10589;53.636;10.012;2023-05-29T19:25:22;15.70;97.80
20858;DHT22;10589;53.636;10.012;2023-05-29T19:27:48;15.70;98.90